createdAt,value
2023-05-01T00:00:12.017Z,11.06
2023-05-01T00:01:15.322Z,11.06
2023-05-01T00:02:18.536Z,11.06
2023-05-01T00:03:55.407Z,11.00
2023-05-01T00:05:00.710Z,11.00
2023-05-01T00:06:04.415Z,11.00
2023-05-01T00:07:40.339Z,11.00
2023-05-01T00:08:43.703Z,10.94
2023-05-01T00:09:47.293Z,10.94
2023-05-01T00:11:23.420Z,10.94
2023-05-01T00:12:26.849Z,10.94
2023-05-01T00:13:30.289Z,10.88
2023-05-01T00:15:05.846Z,10.88
2023-05-01T00:16:09.100Z,10.88
2023-05-01T00:17:13.188Z,10.88
2023-05-01T00:18:48.980Z,10.81
2023-05-01T00:19:52.124Z,10.81
2023-05-01T00:20:56.104Z,10.75
2023-05-01T00:22:31.841Z,10.75
2023-05-01T00:23:35.646Z,10.75
2023-05-01T00:24:39.110Z,10.69
2023-05-01T00:26:14.894Z,10.69
2023-05-01T00:27:18.384Z,10.63
2023-05-01T00:28:21.540Z,10.63
2023-05-01T00:29:57.542Z,10.63
2023-05-01T00:31:00.989Z,10.63
2023-05-01T00:32:04.687Z,10.56
2023-05-01T00:33:40.849Z,10.56
2023-05-01T00:34:44.215Z,10.50
2023-05-01T00:35:47.931Z,10.50
2023-05-01T00:37:25.091Z,10.44
2023-05-01T00:38:28.774Z,10.44
2023-05-01T00:39:32.113Z,10.44
2023-05-01T00:41:08.217Z,10.38
2023-05-01T00:42:11.618Z,10.38
2023-05-01T00:43:15.193Z,10.38
2023-05-01T00:44:50.441Z,10.31
2023-05-01T00:45:54.084Z,10.31
2023-05-01T00:46:58.190Z,10.31
2023-05-01T00:48:34.103Z,10.25
2023-05-01T00:49:37.671Z,10.25
2023-05-01T00:50:41.479Z,10.25
2023-05-01T00:52:17.123Z,10.25
2023-05-01T00:53:20.538Z,10.25
2023-05-01T00:54:23.858Z,10.19
2023-05-01T00:55:59.470Z,10.19
2023-05-01T00:57:02.928Z,10.19
2023-05-01T00:58:06.520Z,10.13
2023-05-01T00:59:42.328Z,10.13
2023-05-01T01:00:12.565Z,10.13
2023-05-01T01:01:15.856Z,10.13
2023-05-01T01:02:20.020Z,10.13
2023-05-01T01:03:55.686Z,10.13
2023-05-01T01:04:59.467Z,10.13
2023-05-01T01:06:02.968Z,10.13
2023-05-01T01:07:39.112Z,10.06
2023-05-01T01:08:42.427Z,10.06
2023-05-01T01:09:46.060Z,10.06
2023-05-01T01:11:22.151Z,10.06
2023-05-01T01:12:25.706Z,10.06
2023-05-01T01:13:29.090Z,10.06
2023-05-01T01:15:04.619Z,10.00
2023-05-01T01:16:08.004Z,10.00
2023-05-01T01:17:11.799Z,10.00
2023-05-01T01:18:47.803Z,10.00
2023-05-01T01:19:51.149Z,10.00
2023-05-01T01:20:54.936Z,10.00
2023-05-01T01:22:30.446Z,10.00
2023-05-01T01:23:33.886Z,10.00
2023-05-01T01:24:37.649Z,10.00
2023-05-01T01:26:13.352Z,10.00
2023-05-01T01:27:16.608Z,10.00
2023-05-01T01:28:19.964Z,9.94
2023-05-01T01:29:55.719Z,9.94
2023-05-01T01:30:59.430Z,9.94
2023-05-01T01:32:03.116Z,9.94
2023-05-01T01:33:39.304Z,9.94
2023-05-01T01:34:42.676Z,9.94
2023-05-01T01:35:46.281Z,9.94
2023-05-01T01:37:21.638Z,9.94
2023-05-01T01:38:25.080Z,9.94
2023-05-01T01:39:28.547Z,9.94
2023-05-01T01:41:04.718Z,9.94
2023-05-01T01:42:08.363Z,9.94
2023-05-01T01:43:11.600Z,9.94
2023-05-01T01:44:47.322Z,10.00
2023-05-01T01:45:50.564Z,10.00
2023-05-01T01:46:54.372Z,10.00
2023-05-01T01:48:29.702Z,10.00
2023-05-01T01:49:32.946Z,10.06
2023-05-01T01:50:37.039Z,10.00
2023-05-01T01:52:12.571Z,10.06
2023-05-01T01:53:16.187Z,10.06
2023-05-01T01:54:19.592Z,10.06
2023-05-01T01:55:55.019Z,10.06
2023-05-01T01:57:01.344Z,10.06
2023-05-01T01:58:04.688Z,10.06
2023-05-01T01:59:40.289Z,10.06
2023-05-01T02:00:12.260Z,10.06
2023-05-01T02:01:15.797Z,10.06
2023-05-01T02:02:19.860Z,10.06
2023-05-01T02:03:56.930Z,10.06
2023-05-01T02:05:01.403Z,10.06
2023-05-01T02:06:05.070Z,10.06
2023-05-01T02:07:41.214Z,10.06
2023-05-01T02:08:44.436Z,10.06
2023-05-01T02:09:48.172Z,10.06
2023-05-01T02:11:24.081Z,10.00
2023-05-01T02:12:27.362Z,10.06
2023-05-01T02:13:30.934Z,10.06
2023-05-01T02:15:06.588Z,10.00
2023-05-01T02:16:10.183Z,10.00
2023-05-01T02:17:14.123Z,10.00
2023-05-01T02:18:50.120Z,10.00
2023-05-01T02:19:54.028Z,10.00
2023-05-01T02:20:57.758Z,9.94
2023-05-01T02:22:33.662Z,9.88
2023-05-01T02:23:37.213Z,9.88
2023-05-01T02:24:40.762Z,9.88
2023-05-01T02:26:16.270Z,9.88
2023-05-01T02:27:19.635Z,9.81
2023-05-01T02:28:22.920Z,9.81
2023-05-01T02:29:58.538Z,9.81
2023-05-01T02:31:02.360Z,9.75
2023-05-01T02:32:06.372Z,9.75
2023-05-01T02:33:42.176Z,9.75
2023-05-01T02:34:45.545Z,9.75
2023-05-01T02:35:48.717Z,9.69
2023-05-01T02:37:24.469Z,9.69
2023-05-01T02:38:27.901Z,9.69
2023-05-01T02:39:31.419Z,9.69
2023-05-01T02:41:07.154Z,9.69
2023-05-01T02:42:10.541Z,9.69
2023-05-01T02:43:14.120Z,9.63
2023-05-01T02:44:49.985Z,9.63
2023-05-01T02:45:53.278Z,9.63
2023-05-01T02:46:57.104Z,9.63
2023-05-01T02:48:33.432Z,9.56
2023-05-01T02:49:37.109Z,9.63
2023-05-01T02:50:41.051Z,9.56
2023-05-01T02:52:16.549Z,9.56
2023-05-01T02:53:20.087Z,9.56
2023-05-01T02:54:23.645Z,9.56
2023-05-01T02:55:59.332Z,9.50
2023-05-01T02:57:02.865Z,9.50
2023-05-01T02:58:06.222Z,9.50
2023-05-01T02:59:41.726Z,9.44
2023-05-01T03:00:12.029Z,9.44
2023-05-01T03:01:15.146Z,9.44
2023-05-01T03:02:19.292Z,9.44
2023-05-01T03:03:54.971Z,9.44
2023-05-01T03:04:58.878Z,9.44
2023-05-01T03:06:02.492Z,9.44
2023-05-01T03:07:38.638Z,9.38
2023-05-01T03:08:41.807Z,9.38
2023-05-01T03:09:45.328Z,9.38
2023-05-01T03:11:21.372Z,9.38
2023-05-01T03:12:24.787Z,9.38
2023-05-01T03:13:28.427Z,9.38
2023-05-01T03:15:03.780Z,9.31
2023-05-01T03:16:07.620Z,9.31
2023-05-01T03:17:11.471Z,9.31
2023-05-01T03:18:47.332Z,9.31
2023-05-01T03:19:50.848Z,9.25
2023-05-01T03:20:54.845Z,9.25
2023-05-01T03:22:30.485Z,9.25
2023-05-01T03:23:33.982Z,9.25
2023-05-01T03:24:37.497Z,9.25
2023-05-01T03:26:12.966Z,9.25
2023-05-01T03:27:16.659Z,9.25
2023-05-01T03:28:20.090Z,9.19
2023-05-01T03:29:56.111Z,9.19
2023-05-01T03:30:59.940Z,9.19
2023-05-01T03:32:03.346Z,9.19
2023-05-01T03:33:39.767Z,9.19
2023-05-01T03:34:43.347Z,9.19
2023-05-01T03:35:46.930Z,9.19
2023-05-01T03:37:22.716Z,9.19
2023-05-01T03:38:26.114Z,9.13
2023-05-01T03:39:29.654Z,9.13
2023-05-01T03:41:05.465Z,9.13
2023-05-01T03:42:08.841Z,9.13
2023-05-01T03:43:12.327Z,9.13
2023-05-01T03:44:48.210Z,9.13
2023-05-01T03:45:51.527Z,9.13
2023-05-01T03:46:55.436Z,9.06
2023-05-01T03:48:31.243Z,9.06
2023-05-01T03:49:34.880Z,9.06
2023-05-01T03:50:38.910Z,9.06
2023-05-01T03:52:14.325Z,9.00
2023-05-01T03:53:17.915Z,9.00
2023-05-01T03:54:21.410Z,9.00
2023-05-01T03:55:57.273Z,8.94
2023-05-01T03:57:00.708Z,8.94
2023-05-01T03:58:04.508Z,8.94
2023-05-01T03:59:40.264Z,8.94
2023-05-01T04:00:12.700Z,8.94
2023-05-01T04:01:16.049Z,8.94
2023-05-01T04:02:19.974Z,8.94
2023-05-01T04:03:57.001Z,8.88
2023-05-01T04:05:01.447Z,8.88
2023-05-01T04:05:42.643Z,8.88
2023-05-01T04:06:46.620Z,8.88
2023-05-01T04:07:49.984Z,8.88
2023-05-01T04:09:25.466Z,8.88
2023-05-01T04:10:29.197Z,8.88
2023-05-01T04:11:32.947Z,8.88
2023-05-01T04:13:07.958Z,8.88
2023-05-01T04:14:11.243Z,8.88
2023-05-01T04:15:15.616Z,8.88
2023-05-01T04:16:51.256Z,8.88
2023-05-01T04:17:54.650Z,8.88
2023-05-01T04:18:58.110Z,8.88
2023-05-01T04:20:33.821Z,8.88
2023-05-01T04:21:37.075Z,8.88
2023-05-01T04:22:40.239Z,8.88
2023-05-01T04:24:15.726Z,8.94
2023-05-01T04:25:19.316Z,8.94
2023-05-01T04:26:22.693Z,8.94
2023-05-01T04:27:57.835Z,8.94
2023-05-01T04:29:01.274Z,8.94
2023-05-01T04:30:04.518Z,8.94
2023-05-01T04:31:40.513Z,9.00
2023-05-01T04:32:44.705Z,9.00
2023-05-01T04:33:48.257Z,9.00
2023-05-01T04:35:23.607Z,9.00
2023-05-01T04:36:26.926Z,9.06
2023-05-01T04:37:30.240Z,9.06
2023-05-01T04:39:05.348Z,9.06
2023-05-01T04:40:11.280Z,9.06
2023-05-01T04:41:14.872Z,9.06
2023-05-01T04:42:50.305Z,9.06
2023-05-01T04:43:53.357Z,9.06
2023-05-01T04:44:56.905Z,9.06
2023-05-01T04:46:32.180Z,9.13
2023-05-01T04:47:36.044Z,9.13
2023-05-01T04:48:39.980Z,9.13
2023-05-01T04:50:15.225Z,9.13
2023-05-01T04:51:18.706Z,9.13
2023-05-01T04:52:22.130Z,9.13
2023-05-01T04:53:57.135Z,9.13
2023-05-01T04:55:00.428Z,9.19
2023-05-01T04:56:06.164Z,9.19
2023-05-01T04:57:41.349Z,9.19
2023-05-01T04:58:44.649Z,9.19
2023-05-01T04:59:47.820Z,9.19
2023-05-01T05:00:12.017Z,9.19
2023-05-01T05:01:15.325Z,9.25
2023-05-01T05:02:18.737Z,9.25
2023-05-01T05:03:55.052Z,9.25
2023-05-01T05:04:59.334Z,9.31
2023-05-01T05:06:02.629Z,9.25
2023-05-01T05:07:38.545Z,9.31
2023-05-01T05:08:41.832Z,9.31
2023-05-01T05:09:45.185Z,9.31
2023-05-01T05:11:20.913Z,9.31
2023-05-01T05:12:24.598Z,9.38
2023-05-01T05:13:27.873Z,9.38
2023-05-01T05:15:03.503Z,9.38
2023-05-01T05:16:06.652Z,9.38
2023-05-01T05:17:10.183Z,9.38
2023-05-01T05:18:45.460Z,9.44
2023-05-01T05:19:48.828Z,9.44
2023-05-01T05:20:52.926Z,9.44
2023-05-01T05:22:28.060Z,9.44
2023-05-01T05:23:31.521Z,9.44
2023-05-01T05:24:35.017Z,9.44
2023-05-01T05:26:10.382Z,9.44
2023-05-01T05:27:13.679Z,9.44
2023-05-01T05:28:16.960Z,9.44
2023-05-01T05:29:52.526Z,9.44
2023-05-01T05:30:56.034Z,9.50
2023-05-01T05:31:59.941Z,9.50
2023-05-01T05:33:36.072Z,9.50
2023-05-01T05:34:39.477Z,9.50
2023-05-01T05:35:42.851Z,9.50
2023-05-01T05:37:18.191Z,9.56
2023-05-01T05:38:22.117Z,9.56
2023-05-01T05:39:25.560Z,9.56
2023-05-01T05:41:01.641Z,9.56
2023-05-01T05:42:04.965Z,9.56
2023-05-01T05:43:08.500Z,9.56
2023-05-01T05:44:46.320Z,9.56
2023-05-01T05:45:49.814Z,9.56
2023-05-01T05:46:53.716Z,9.56
2023-05-01T05:48:29.356Z,9.63
2023-05-01T05:49:32.917Z,9.63
2023-05-01T05:50:36.726Z,9.63
2023-05-01T05:52:12.052Z,9.63
2023-05-01T05:53:15.181Z,9.63
2023-05-01T05:54:19.826Z,9.63
2023-05-01T05:55:55.256Z,9.63
2023-05-01T05:56:58.703Z,9.63
2023-05-01T05:58:01.857Z,9.63
2023-05-01T05:59:37.135Z,9.63
2023-05-01T06:00:12.860Z,9.63
2023-05-01T06:01:16.279Z,9.56
2023-05-01T06:02:19.695Z,9.63
2023-05-01T06:03:56.565Z,9.63
2023-05-01T06:05:00.135Z,9.63
2023-05-01T06:06:04.126Z,9.63
2023-05-01T06:07:40.412Z,9.63
2023-05-01T06:08:43.900Z,9.69
2023-05-01T06:09:47.668Z,9.69
2023-05-01T06:11:23.933Z,9.69
2023-05-01T06:12:27.030Z,9.69
2023-05-01T06:14:00.859Z,9.69
2023-05-01T06:15:36.593Z,9.75
2023-05-01T06:16:40.339Z,9.75
2023-05-01T06:17:43.717Z,9.75
2023-05-01T06:19:20.891Z,9.81
2023-05-01T06:20:24.161Z,9.88
2023-05-01T06:21:27.723Z,9.88
2023-05-01T06:23:03.346Z,9.94
2023-05-01T06:24:06.856Z,9.94
2023-05-01T06:25:10.076Z,9.94
2023-05-01T06:26:45.364Z,10.00
2023-05-01T06:27:48.590Z,10.00
2023-05-01T06:28:51.847Z,10.00
2023-05-01T06:30:27.280Z,10.06
2023-05-01T06:31:30.945Z,10.06
2023-05-01T06:32:34.729Z,10.06
2023-05-01T06:34:10.175Z,10.06
2023-05-01T06:35:13.580Z,10.06
2023-05-01T06:36:17.080Z,10.06
2023-05-01T06:37:52.486Z,10.13
2023-05-01T06:38:55.784Z,10.13
2023-05-01T06:39:59.184Z,10.13
2023-05-01T06:41:34.763Z,10.19
2023-05-01T06:42:38.019Z,10.19
2023-05-01T06:43:41.436Z,10.19
2023-05-01T06:45:17.078Z,10.19
2023-05-01T06:46:20.469Z,10.25
2023-05-01T06:47:24.277Z,10.25
2023-05-01T06:49:00.062Z,10.25
2023-05-01T06:50:05.234Z,10.25
2023-05-01T06:51:09.102Z,10.25
2023-05-01T06:52:44.644Z,10.25
2023-05-01T06:53:48.048Z,10.31
2023-05-01T06:54:51.456Z,10.31
2023-05-01T06:56:26.897Z,10.31
2023-05-01T06:57:30.108Z,10.31
2023-05-01T06:58:37.373Z,10.31
2023-05-01T07:00:12.293Z,10.31
2023-05-01T07:01:15.962Z,10.31
2023-05-01T07:02:22.273Z,10.38
2023-05-01T07:03:58.436Z,10.38
2023-05-01T07:05:01.688Z,10.44
2023-05-01T07:06:05.131Z,10.50
2023-05-01T07:07:47.377Z,10.56
2023-05-01T07:08:59.030Z,10.56
2023-05-01T07:10:02.473Z,10.63
2023-05-01T07:11:37.759Z,10.63
2023-05-01T07:12:41.187Z,10.69
2023-05-01T07:13:44.735Z,10.75
2023-05-01T07:15:20.192Z,10.75
2023-05-01T07:16:23.551Z,10.81
2023-05-01T07:17:27.350Z,10.88
2023-05-01T07:19:03.126Z,10.94
2023-05-01T07:20:06.601Z,10.94
2023-05-01T07:21:10.179Z,11.00
2023-05-01T07:22:45.507Z,11.06
2023-05-01T07:23:50.415Z,11.19
2023-05-01T07:24:53.716Z,11.19
2023-05-01T07:26:29.402Z,11.31
2023-05-01T07:27:32.684Z,11.31
2023-05-01T07:28:35.901Z,11.38
2023-05-01T07:30:11.174Z,11.44
2023-05-01T07:31:14.776Z,11.44
2023-05-01T07:32:18.945Z,11.50
2023-05-01T07:33:54.984Z,11.50
2023-05-01T07:34:58.065Z,11.56
2023-05-01T07:36:01.449Z,11.56
2023-05-01T07:37:36.892Z,11.56
2023-05-01T07:38:40.134Z,11.63
2023-05-01T07:39:43.436Z,11.63
2023-05-01T07:41:19.387Z,11.56
2023-05-01T07:42:22.974Z,11.56
2023-05-01T07:43:29.512Z,11.56
2023-05-01T07:45:05.269Z,11.56
2023-05-01T07:46:08.937Z,11.63
2023-05-01T07:47:13.052Z,11.63
2023-05-01T07:48:49.286Z,11.69
2023-05-01T07:49:52.306Z,11.69
2023-05-01T07:50:56.406Z,11.75
2023-05-01T07:52:31.956Z,11.81
2023-05-01T07:53:35.712Z,11.81
2023-05-01T07:54:39.756Z,11.81
2023-05-01T07:56:15.132Z,11.88
2023-05-01T07:57:18.339Z,11.88
2023-05-01T07:58:21.974Z,11.88
2023-05-01T07:59:57.719Z,11.81
2023-05-01T08:00:12.073Z,11.81
2023-05-01T08:01:15.384Z,11.81
2023-05-01T08:02:18.791Z,11.81
2023-05-01T08:03:55.660Z,11.88
2023-05-01T08:04:59.997Z,11.94
2023-05-01T08:06:03.400Z,11.94
2023-05-01T08:07:39.348Z,12.13
2023-05-01T08:08:42.611Z,12.19
2023-05-01T08:09:45.975Z,12.25
2023-05-01T08:11:24.604Z,12.31
2023-05-01T08:12:27.647Z,12.38
2023-05-01T08:13:30.885Z,12.38
2023-05-01T08:15:06.250Z,12.44
2023-05-01T08:16:09.892Z,12.50
2023-05-01T08:17:15.052Z,12.50
2023-05-01T08:18:50.641Z,12.56
2023-05-01T08:19:54.197Z,12.63
2023-05-01T08:20:57.838Z,12.63
2023-05-01T08:22:33.253Z,12.75
2023-05-01T08:23:37.096Z,12.81
2023-05-01T08:24:40.473Z,12.81
2023-05-01T08:26:16.335Z,12.88
2023-05-01T08:27:20.421Z,12.94
2023-05-01T08:28:23.891Z,12.94
2023-05-01T08:29:59.414Z,13.00
2023-05-01T08:31:03.193Z,13.00
2023-05-01T08:32:06.967Z,13.06
2023-05-01T08:33:42.900Z,13.13
2023-05-01T08:34:46.537Z,13.13
2023-05-01T08:35:50.153Z,13.19
2023-05-01T08:37:28.217Z,13.25
2023-05-01T08:38:31.663Z,13.25
2023-05-01T08:39:35.264Z,13.38
2023-05-01T08:41:11.251Z,13.38
2023-05-01T08:42:14.553Z,13.50
2023-05-01T08:43:18.844Z,13.56
2023-05-01T08:44:54.350Z,13.69
2023-05-01T08:45:57.768Z,13.69
2023-05-01T08:47:01.780Z,13.75
2023-05-01T08:48:37.978Z,13.88
2023-05-01T08:49:41.352Z,13.88
2023-05-01T08:50:45.319Z,13.94
2023-05-01T08:52:21.241Z,14.00
2023-05-01T08:53:24.652Z,14.06
2023-05-01T08:54:28.096Z,14.06
2023-05-01T08:56:03.290Z,14.00
2023-05-01T08:57:08.305Z,14.00
2023-05-01T08:58:13.889Z,14.00
2023-05-01T08:59:49.726Z,14.06
2023-05-01T09:00:12.950Z,14.13
2023-05-01T09:01:16.998Z,14.19
2023-05-01T09:02:21.185Z,14.19
2023-05-01T09:03:57.721Z,14.31
2023-05-01T09:05:01.500Z,14.38
2023-05-01T09:06:05.206Z,14.44
2023-05-01T09:07:41.656Z,14.56
2023-05-01T09:08:45.063Z,14.69
2023-05-01T09:09:48.699Z,14.75
2023-05-01T09:11:24.736Z,14.94
2023-05-01T09:12:28.031Z,15.06
2023-05-01T09:13:31.554Z,15.13
2023-05-01T09:15:07.280Z,15.31
2023-05-01T09:16:10.757Z,15.38
2023-05-01T09:17:14.628Z,15.38
2023-05-01T09:18:51.277Z,15.38
2023-05-01T09:19:54.834Z,15.44
2023-05-01T09:20:58.482Z,15.44
2023-05-01T09:22:34.156Z,15.44
2023-05-01T09:23:37.856Z,15.44
2023-05-01T09:24:41.286Z,15.44
2023-05-01T09:26:16.956Z,15.44
2023-05-01T09:27:20.367Z,15.50
2023-05-01T09:28:23.815Z,15.50
2023-05-01T09:29:59.575Z,15.50
2023-05-01T09:31:02.804Z,15.50
2023-05-01T09:32:06.892Z,15.56
2023-05-01T09:33:43.903Z,15.63
2023-05-01T09:34:47.392Z,15.63
2023-05-01T09:35:50.940Z,15.63
2023-05-01T09:37:26.361Z,15.69
2023-05-01T09:38:29.824Z,15.75
2023-05-01T09:39:33.195Z,15.75
2023-05-01T09:41:09.407Z,15.81
2023-05-01T09:42:13.218Z,15.81
2023-05-01T09:43:16.623Z,15.94
2023-05-01T09:44:51.966Z,16.13
2023-05-01T09:45:55.449Z,16.19
2023-05-01T09:46:59.943Z,16.38
2023-05-01T09:48:36.360Z,16.44
2023-05-01T09:49:39.796Z,16.44
2023-05-01T09:50:43.581Z,16.44
2023-05-01T09:52:18.889Z,16.44
2023-05-01T09:53:22.224Z,16.44
2023-05-01T09:54:25.607Z,16.50
2023-05-01T09:56:01.253Z,16.63
2023-05-01T09:57:04.585Z,16.88
2023-05-01T09:58:08.027Z,17.00
2023-05-01T09:59:43.723Z,17.00
2023-05-01T10:00:12.673Z,17.06
2023-05-01T10:01:16.021Z,17.13
2023-05-01T10:02:20.215Z,17.19
2023-05-01T10:03:56.900Z,17.44
2023-05-01T10:05:00.866Z,17.56
2023-05-01T10:06:04.491Z,17.63
2023-05-01T10:07:40.964Z,17.69
2023-05-01T10:08:44.587Z,17.81
2023-05-01T10:09:47.862Z,18.13
2023-05-01T10:11:26.135Z,18.25
2023-05-01T10:12:29.813Z,18.38
2023-05-01T10:13:33.225Z,18.44
2023-05-01T10:15:21.046Z,18.50
2023-05-01T10:16:27.856Z,18.56
2023-05-01T10:17:31.920Z,18.56
2023-05-01T10:19:07.972Z,18.63
2023-05-01T10:20:11.592Z,18.69
2023-05-01T10:21:15.268Z,18.63
2023-05-01T10:22:50.809Z,18.69
2023-05-01T10:23:54.246Z,18.63
2023-05-01T10:24:58.150Z,18.63
2023-05-01T10:26:35.908Z,18.56
2023-05-01T10:27:39.402Z,18.56
2023-05-01T10:28:42.969Z,18.56
2023-05-01T10:30:18.632Z,18.38
2023-05-01T10:31:22.550Z,18.31
2023-05-01T10:32:29.542Z,18.25
2023-05-01T10:34:05.388Z,18.25
2023-05-01T10:35:09.505Z,18.19
2023-05-01T10:36:13.189Z,18.19
2023-05-01T10:37:49.064Z,18.13
2023-05-01T10:38:52.600Z,18.13
2023-05-01T10:39:56.131Z,18.13
2023-05-01T10:41:31.741Z,18.06
2023-05-01T10:42:35.381Z,18.06
2023-05-01T10:43:38.939Z,18.06
2023-05-01T10:45:14.795Z,18.00
2023-05-01T10:46:20.996Z,18.00
2023-05-01T10:47:25.261Z,17.94
2023-05-01T10:49:01.534Z,17.88
2023-05-01T10:50:04.857Z,17.88
2023-05-01T10:51:08.601Z,17.81
2023-05-01T10:52:46.663Z,17.75
2023-05-01T10:53:50.030Z,17.69
2023-05-01T10:54:53.493Z,17.69
2023-05-01T10:56:29.149Z,17.63
2023-05-01T10:57:32.685Z,17.56
2023-05-01T10:58:36.238Z,17.50
2023-05-01T11:00:12.393Z,17.44
2023-05-01T11:01:16.101Z,17.31
2023-05-01T11:02:20.287Z,17.25
2023-05-01T11:03:56.888Z,17.19
2023-05-01T11:05:00.483Z,17.19
2023-05-01T11:06:19.608Z,17.13
2023-05-01T11:07:56.861Z,17.13
2023-05-01T11:09:00.014Z,17.13
2023-05-01T11:10:03.558Z,17.13
2023-05-01T11:11:38.816Z,17.13
2023-05-01T11:12:42.570Z,17.13
2023-05-01T11:13:45.946Z,17.13
2023-05-01T11:15:21.574Z,17.19
2023-05-01T11:16:25.038Z,17.19
2023-05-01T11:17:29.925Z,17.25
2023-05-01T11:19:06.040Z,17.25
2023-05-01T11:20:10.269Z,17.31
2023-05-01T11:21:13.808Z,17.31
2023-05-01T11:22:49.166Z,17.31
2023-05-01T11:23:52.796Z,17.38
2023-05-01T11:24:56.175Z,17.38
2023-05-01T11:26:32.657Z,17.44
2023-05-01T11:27:35.971Z,17.50
2023-05-01T11:28:39.502Z,17.56
2023-05-01T11:30:15.037Z,17.63
2023-05-01T11:31:18.476Z,17.69
2023-05-01T11:32:22.616Z,17.75
2023-05-01T11:33:58.826Z,17.81
2023-05-01T11:35:02.641Z,17.81
2023-05-01T11:36:06.233Z,17.94
2023-05-01T11:37:41.652Z,17.94
2023-05-01T11:38:45.295Z,18.00
2023-05-01T11:39:48.795Z,18.06
2023-05-01T11:41:24.372Z,18.38
2023-05-01T11:42:28.084Z,18.56
2023-05-01T11:43:31.810Z,18.63
2023-05-01T11:45:07.623Z,18.81
2023-05-01T11:46:11.763Z,18.88
2023-05-01T11:47:15.836Z,18.94
2023-05-01T11:48:51.574Z,19.00
2023-05-01T11:49:54.881Z,19.06
2023-05-01T11:50:58.538Z,19.06
2023-05-01T11:52:33.985Z,19.06
2023-05-01T11:53:37.447Z,19.06
2023-05-01T11:54:41.061Z,19.13
2023-05-01T11:56:25.980Z,19.25
2023-05-01T11:57:30.561Z,19.31
2023-05-01T11:58:34.108Z,19.44
2023-05-01T12:00:12.798Z,19.56
2023-05-01T12:01:16.347Z,19.69
2023-05-01T12:03:56.611Z,19.88
2023-05-01T12:05:04.873Z,19.94
2023-05-01T12:06:08.283Z,19.94
2023-05-01T12:07:44.522Z,20.00
2023-05-01T12:08:47.871Z,20.00
2023-05-01T12:09:51.194Z,19.81
2023-05-01T12:11:26.704Z,19.75
2023-05-01T12:12:33.263Z,19.63
2023-05-01T12:13:37.044Z,19.50
2023-05-01T12:15:12.617Z,19.31
2023-05-01T12:16:16.007Z,19.13
2023-05-01T12:17:19.879Z,19.13
2023-05-01T12:18:56.624Z,19.00
2023-05-01T12:20:02.411Z,19.00
2023-05-01T12:21:06.111Z,18.94
2023-05-01T12:22:41.826Z,18.88
2023-05-01T12:23:45.441Z,18.88
2023-05-01T12:24:48.969Z,18.81
2023-05-01T12:26:24.873Z,18.88
2023-05-01T12:27:28.217Z,18.88
2023-05-01T12:28:31.547Z,18.88
2023-05-01T12:30:07.285Z,18.94
2023-05-01T12:31:10.851Z,18.94
2023-05-01T12:32:14.775Z,18.94
2023-05-01T12:33:50.833Z,18.94
2023-05-01T12:34:54.101Z,18.88
2023-05-01T12:35:58.269Z,18.88
2023-05-01T12:37:33.768Z,18.69
2023-05-01T12:38:37.493Z,18.56
2023-05-01T12:39:40.968Z,18.56
2023-05-01T12:41:16.541Z,18.44
2023-05-01T12:42:20.247Z,18.44
2023-05-01T12:43:23.578Z,18.38
2023-05-01T12:45:01.706Z,18.31
2023-05-01T12:46:05.327Z,18.31
2023-05-01T12:47:09.175Z,18.31
2023-05-01T12:48:44.886Z,18.31
2023-05-01T12:49:51.886Z,18.25
2023-05-01T12:50:55.878Z,18.19
2023-05-01T12:52:31.691Z,18.19
2023-05-01T12:53:35.058Z,18.19
2023-05-01T12:54:38.236Z,18.19
2023-05-01T12:56:13.820Z,18.19
2023-05-01T12:57:17.277Z,18.19
2023-05-01T12:58:20.708Z,18.19
2023-05-01T12:59:57.124Z,18.19
2023-05-01T13:00:12.502Z,18.19
2023-05-01T13:01:16.151Z,19.25
2023-05-01T13:02:20.464Z,19.31
2023-05-01T13:03:56.986Z,19.50
2023-05-01T13:05:01.349Z,19.69
2023-05-01T13:06:04.604Z,19.94
2023-05-01T13:07:40.603Z,20.06
2023-05-01T13:08:43.923Z,20.25
2023-05-01T13:09:47.549Z,20.25
2023-05-01T13:11:23.777Z,20.69
2023-05-01T13:12:27.167Z,20.75
2023-05-01T13:13:30.827Z,20.81
2023-05-01T13:15:06.344Z,20.75
2023-05-01T13:16:09.867Z,20.75
2023-05-01T13:17:13.848Z,20.75
2023-05-01T13:18:49.944Z,20.75
2023-05-01T13:19:53.673Z,20.69
2023-05-01T13:20:57.646Z,20.63
2023-05-01T13:22:33.418Z,20.56
2023-05-01T13:23:36.771Z,20.56
2023-05-01T13:24:40.257Z,20.56
2023-05-01T13:26:15.922Z,20.56
2023-05-01T13:27:19.344Z,20.50
2023-05-01T13:28:23.253Z,20.38
2023-05-01T13:29:59.063Z,20.44
2023-05-01T13:31:03.001Z,20.38
2023-05-01T13:32:07.120Z,20.31
2023-05-01T13:33:43.222Z,20.25
2023-05-01T13:34:46.797Z,20.31
2023-05-01T13:35:50.225Z,20.38
2023-05-01T13:37:45.052Z,20.50
2023-05-01T13:38:48.851Z,20.63
2023-05-01T13:39:56.039Z,20.81
2023-05-01T13:41:31.697Z,20.81
2023-05-01T13:42:35.433Z,21.38
2023-05-01T13:43:39.026Z,21.63
2023-05-01T13:45:14.858Z,21.63
2023-05-01T13:46:18.950Z,21.75
2023-05-01T13:47:23.368Z,21.81
2023-05-01T13:48:59.416Z,21.81
2023-05-01T13:50:03.096Z,21.69
2023-05-01T13:51:06.905Z,21.69
2023-05-01T13:52:42.556Z,21.38
2023-05-01T13:53:46.218Z,21.31
2023-05-01T13:54:50.050Z,21.25
2023-05-01T13:56:29.157Z,21.00
2023-05-01T13:57:32.742Z,20.94
2023-05-01T13:58:36.182Z,20.88
2023-05-01T14:00:12.308Z,20.69
2023-05-01T14:01:16.149Z,20.63
2023-05-01T14:02:20.392Z,20.56
2023-05-01T14:03:57.240Z,20.44
2023-05-01T14:05:01.524Z,20.38
2023-05-01T14:06:05.580Z,20.31
2023-05-01T14:07:41.966Z,20.25
2023-05-01T14:08:45.674Z,20.19
2023-05-01T14:09:49.352Z,20.13
2023-05-01T14:11:25.032Z,20.06
2023-05-01T14:12:28.657Z,20.00
2023-05-01T14:13:32.188Z,19.94
2023-05-01T14:15:07.938Z,19.88
2023-05-01T14:16:11.854Z,19.88
2023-05-01T14:17:15.661Z,19.88
2023-05-01T14:18:51.374Z,19.81
2023-05-01T14:19:55.661Z,19.75
2023-05-01T14:20:59.131Z,19.63
2023-05-01T14:22:34.693Z,19.56
2023-05-01T14:23:38.142Z,19.50
2023-05-01T14:24:41.388Z,19.38
2023-05-01T14:26:17.450Z,19.31
2023-05-01T14:27:23.780Z,19.25
2023-05-01T14:28:27.181Z,19.19
2023-05-01T14:30:02.955Z,18.81
2023-05-01T14:31:06.158Z,18.75
2023-05-01T14:32:10.103Z,18.56
2023-05-01T14:33:46.310Z,18.44
2023-05-01T14:34:49.974Z,18.31
2023-05-01T14:35:53.980Z,18.25
2023-05-01T14:37:29.649Z,18.13
2023-05-01T14:38:33.312Z,18.06
2023-05-01T14:39:37.049Z,18.06
2023-05-01T14:41:12.748Z,18.06
2023-05-01T14:42:16.154Z,18.00
2023-05-01T14:43:19.770Z,17.88
2023-05-01T14:44:55.753Z,17.75
2023-05-01T14:45:59.499Z,17.75
2023-05-01T14:47:03.434Z,17.69
2023-05-01T14:48:39.437Z,17.50
2023-05-01T14:49:42.986Z,17.44
2023-05-01T14:50:46.589Z,17.38
2023-05-01T14:52:22.216Z,17.31
2023-05-01T14:53:25.721Z,17.25
2023-05-01T14:54:29.162Z,17.19
2023-05-01T14:56:05.568Z,17.06
2023-05-01T14:57:09.154Z,17.00
2023-05-01T14:58:15.533Z,16.94
2023-05-01T14:59:51.170Z,16.94
2023-05-01T15:00:12.938Z,16.94
2023-05-01T15:01:16.846Z,16.94
2023-05-01T15:02:20.948Z,16.88
2023-05-01T15:03:57.615Z,16.81
2023-05-01T15:05:03.205Z,16.75
2023-05-01T15:06:06.764Z,16.75
2023-05-01T15:07:42.907Z,16.69
2023-05-01T15:08:46.239Z,16.69
2023-05-01T15:09:49.918Z,16.69
2023-05-01T15:11:25.759Z,16.75
2023-05-01T15:12:29.245Z,16.75
2023-05-01T15:13:32.615Z,16.75
2023-05-01T15:15:08.454Z,16.75
2023-05-01T15:16:11.907Z,16.75
2023-05-01T15:17:15.939Z,16.81
2023-05-01T15:18:51.875Z,16.88
2023-05-01T15:19:55.511Z,16.94
2023-05-01T15:20:59.202Z,17.00
2023-05-01T15:22:34.965Z,17.13
2023-05-01T15:23:38.997Z,17.19
2023-05-01T15:24:42.739Z,17.19
2023-05-01T15:26:18.880Z,17.19
2023-05-01T15:27:22.485Z,17.13
2023-05-01T15:28:26.794Z,17.06
2023-05-01T15:30:02.424Z,16.94
2023-05-01T15:31:06.424Z,16.94
2023-05-01T15:32:12.715Z,16.88
2023-05-01T15:33:53.471Z,16.81
2023-05-01T15:34:57.311Z,16.81
2023-05-01T15:36:00.761Z,16.88
2023-05-01T15:37:36.623Z,16.81
2023-05-01T15:38:40.358Z,16.81
2023-05-01T15:39:43.904Z,16.75
2023-05-01T15:41:19.603Z,16.75
2023-05-01T15:42:23.074Z,16.75
2023-05-01T15:43:26.670Z,16.75
2023-05-01T15:45:02.512Z,16.81
2023-05-01T15:46:06.542Z,16.88
2023-05-01T15:47:10.744Z,16.88
2023-05-01T15:48:47.152Z,16.94
2023-05-01T15:49:50.421Z,16.94
2023-05-01T15:50:55.987Z,16.94
2023-05-01T15:52:31.545Z,16.94
2023-05-01T15:53:34.984Z,16.94
2023-05-01T15:54:38.500Z,17.00
2023-05-01T15:56:14.103Z,16.94
2023-05-01T15:57:17.744Z,16.94
2023-05-01T15:58:21.326Z,16.94
2023-05-01T15:59:57.287Z,17.06